Time;durP1;ratioP1;P1;durP2;ratioP2;P2;SDS_P1;SDS_P2;PMS_P1;PMS_P2;Temp;Humidity;BMP_temperature;BMP_pressure;BME280_temperature;BME280_humidity;BME280_pressure;Samples;Min_cycle;Max_cycle;Signal;HPM_P1;HPM_P2
2022/03/30 00:00:25;;;;;;;9.10;4.63;;;;;;;;;;5061994;28;20053;-68
2022/03/30 00:02:51;;;;;;;12.60;5.10;;;;;;;;;;5047509;28;20128;-68
2022/03/30 00:05:17;;;;;;;11.15;4.43;;;;;;;;;;5061893;28;20435;-68
2022/03/30 00:07:44;;;;;;;8.45;4.35;;;;;;;;;;5064747;28;20071;-69
2022/03/30 00:10:10;;;;;;;10.80;4.85;;;;;;;;;;5061720;28;20051;-68
2022/03/30 00:12:36;;;;;;;9.23;4.30;;;;;;;;;;5046690;28;20086;-68
2022/03/30 00:15:03;;;;;;;9.10;4.45;;;;;;;;;;5062037;28;20040;-68
2022/03/30 00:17:31;;;;;;;8.88;4.10;;;;;;;;;;5062899;28;20052;-68
2022/03/30 00:19:59;;;;;;;11.52;5.10;;;;;;;;;;5061379;28;20044;-68
2022/03/30 00:22:25;;;;;;;9.93;4.35;;;;;;;;;;5046243;28;20051;-68
2022/03/30 00:24:51;;;;;;;9.07;4.60;;;;;;;;;;5062586;28;20040;-68
2022/03/30 00:27:17;;;;;;;11.52;4.70;;;;;;;;;;5062857;28;20044;-69
2022/03/30 00:29:45;;;;;;;12.38;4.78;;;;;;;;;;5061941;28;20492;-68
2022/03/30 00:32:11;;;;;;;10.90;4.60;;;;;;;;;;5063281;28;20044;-68
2022/03/30 00:34:37;;;;;;;10.50;4.97;;;;;;;;;;5061539;28;20544;-69
2022/03/30 00:37:03;;;;;;;10.80;5.22;;;;;;;;;;5064052;28;20048;-69
2022/03/30 00:39:29;;;;;;;10.48;4.57;;;;;;;;;;5059111;28;20123;-68
2022/03/30 00:41:55;;;;;;;9.55;5.00;;;;;;;;;;5042979;28;20072;-68
2022/03/30 00:44:21;;;;;;;10.50;4.60;;;;;;;;;;5043202;28;20049;-68
2022/03/30 00:46:47;;;;;;;12.27;5.28;;;;;;;;;;5062544;28;20412;-68
2022/03/30 00:49:13;;;;;;;9.98;4.93;;;;;;;;;;5062037;28;20041;-68
2022/03/30 00:51:39;;;;;;;10.57;5.53;;;;;;;;;;5062230;28;20554;-68
2022/03/30 00:54:05;;;;;;;10.40;5.07;;;;;;;;;;5063443;28;20527;-68
2022/03/30 00:56:32;;;;;;;11.75;5.30;;;;;;;;;;5061800;28;20068;-68
2022/03/30 00:58:59;;;;;;;11.63;5.53;;;;;;;;;;5063745;28;20041;-68
2022/03/30 01:01:25;;;;;;;12.73;5.15;;;;;;;;;;5061315;28;20094;-68
2022/03/30 01:03:51;;;;;;;10.10;4.88;;;;;;;;;;5062680;28;20045;-68
2022/03/30 01:06:17;;;;;;;12.57;5.30;;;;;;;;;;5044736;28;20570;-69
2022/03/30 01:08:45;;;;;;;12.27;4.80;;;;;;;;;;5062188;28;20047;-68
2022/03/30 01:11:12;;;;;;;10.48;5.57;;;;;;;;;;5062063;28;20398;-68
2022/03/30 01:13:39;;;;;;;12.18;5.25;;;;;;;;;;5063458;28;20044;-69
2022/03/30 01:16:05;;;;;;;10.35;5.03;;;;;;;;;;5060878;28;20076;-68
2022/03/30 01:18:37;;;;;;;9.82;4.90;;;;;;;;;;5062218;28;20048;-68
2022/03/30 01:21:04;;;;;;;9.63;5.13;;;;;;;;;;5060737;28;20131;-68
2022/03/30 01:23:30;;;;;;;9.63;4.82;;;;;;;;;;5062402;28;20080;-68
2022/03/30 01:25:56;;;;;;;10.50;4.85;;;;;;;;;;5060049;28;20679;-68
2022/03/30 01:28:27;;;;;;;8.73;4.78;;;;;;;;;;5063276;28;20075;-68
2022/03/30 01:33:38;;;;;;;11.48;5.18;;;;;;;;;;5062052;28;20052;-68
2022/03/30 01:36:05;;;;;;;9.50;4.95;;;;;;;;;;5042492;28;20794;-69
2022/03/30 01:38:31;;;;;;;10.98;4.90;;;;;;;;;;5017270;28;20119;-68
2022/03/30 01:40:57;;;;;;;13.77;5.70;;;;;;;;;;5041037;28;20143;-69
2022/03/30 01:43:23;;;;;;;8.15;4.53;;;;;;;;;;5042145;28;20125;-69
2022/03/30 01:45:49;;;;;;;12.15;5.18;;;;;;;;;;5054194;28;20056;-69
2022/03/30 01:48:15;;;;;;;12.13;4.97;;;;;;;;;;5045130;28;20125;-68
2022/03/30 01:50:41;;;;;;;8.80;4.50;;;;;;;;;;5060534;28;20119;-69
2022/03/30 01:53:07;;;;;;;11.07;5.50;;;;;;;;;;5062960;28;20588;-69
2022/03/30 01:55:33;;;;;;;9.90;4.72;;;;;;;;;;5048487;28;20052;-69
2022/03/30 01:58:00;;;;;;;10.10;4.78;;;;;;;;;;5043134;28;20029;-69
2022/03/30 02:00:26;;;;;;;10.77;4.85;;;;;;;;;;5051572;28;20598;-69
2022/03/30 02:02:52;;;;;;;11.30;4.68;;;;;;;;;;5061824;28;20556;-68
2022/03/30 02:05:18;;;;;;;9.23;5.25;;;;;;;;;;5061225;28;20131;-69
2022/03/30 02:07:45;;;;;;;11.30;5.13;;;;;;;;;;5061787;28;20071;-69
2022/03/30 02:10:11;;;;;;;9.68;4.97;;;;;;;;;;5043343;28;20067;-69
2022/03/30 02:12:37;;;;;;;10.15;5.10;;;;;;;;;;5061535;28;20060;-69
2022/03/30 02:15:04;;;;;;;11.38;4.93;;;;;;;;;;5030633;28;20048;-69
2022/03/30 02:17:30;;;;;;;10.90;5.00;;;;;;;;;;5029306;28;20053;-69
2022/03/30 02:19:57;;;;;;;10.35;4.47;;;;;;;;;;5046867;28;20072;-69
2022/03/30 02:22:23;;;;;;;8.73;4.18;;;;;;;;;;5062259;28;20048;-69
2022/03/30 02:24:50;;;;;;;9.88;4.65;;;;;;;;;;5043834;28;20040;-69
2022/03/30 02:27:18;;;;;;;9.48;5.10;;;;;;;;;;5044758;28;20116;-69
2022/03/30 02:29:44;;;;;;;8.77;4.38;;;;;;;;;;5060065;28;20035;-69
2022/03/30 02:32:10;;;;;;;10.13;4.53;;;;;;;;;;5060422;28;20040;-69
2022/03/30 02:34:37;;;;;;;11.40;4.97;;;;;;;;;;5059930;28;20056;-69
2022/03/30 02:37:03;;;;;;;9.48;4.50;;;;;;;;;;5061078;28;20055;-69
2022/03/30 02:39:29;;;;;;;11.13;5.15;;;;;;;;;;5059904;28;20040;-69
2022/03/30 02:41:55;;;;;;;10.65;4.82;;;;;;;;;;5059660;28;20550;-69
2022/03/30 02:44:22;;;;;;;8.70;4.72;;;;;;;;;;5063507;28;20048;-69
2022/03/30 02:46:48;;;;;;;10.40;4.70;;;;;;;;;;5064819;28;20063;-69
2022/03/30 02:49:14;;;;;;;9.77;4.90;;;;;;;;;;5059746;28;20037;-69
2022/03/30 02:51:40;;;;;;;9.80;4.80;;;;;;;;;;5044832;28;20044;-69
2022/03/30 02:54:07;;;;;;;9.77;4.57;;;;;;;;;;5044457;28;20037;-69
2022/03/30 02:56:34;;;;;;;11.50;5.05;;;;;;;;;;5046575;28;20048;-69
2022/03/30 02:59:00;;;;;;;11.57;5.03;;;;;;;;;;5065932;28;20074;-69
2022/03/30 03:01:26;;;;;;;10.68;5.15;;;;;;;;;;5063699;28;20044;-69
2022/03/30 03:03:52;;;;;;;10.10;5.10;;;;;;;;;;5064573;28;20770;-69
2022/03/30 03:06:18;;;;;;;8.80;4.43;;;;;;;;;;5062692;28;20052;-68
2022/03/30 03:08:44;;;;;;;10.77;5.03;;;;;;;;;;5064598;28;20068;-69
2022/03/30 03:11:10;;;;;;;10.85;4.78;;;;;;;;;;5063490;28;20036;-69
2022/03/30 03:13:36;;;;;;;11.68;5.18;;;;;;;;;;5047678;28;20123;-69
2022/03/30 03:16:02;;;;;;;8.93;4.38;;;;;;;;;;5062793;28;20051;-69
2022/03/30 03:18:29;;;;;;;10.98;4.63;;;;;;;;;;5064547;28;20704;-69
2022/03/30 03:20:55;;;;;;;10.73;4.30;;;;;;;;;;5062809;28;20032;-69
2022/03/30 03:23:21;;;;;;;9.07;4.55;;;;;;;;;;5064331;28;20111;-69
2022/03/30 03:25:47;;;;;;;10.10;4.38;;;;;;;;;;5045917;28;20045;-69
2022/03/30 03:28:14;;;;;;;10.43;4.65;;;;;;;;;;5064379;28;20452;-69
2022/03/30 03:30:40;;;;;;;9.38;4.63;;;;;;;;;;5063276;28;20524;-69
2022/03/30 03:33:06;;;;;;;9.52;4.68;;;;;;;;;;5064053;28;20044;-70
2022/03/30 03:35:32;;;;;;;8.18;4.10;;;;;;;;;;5063019;28;20602;-70
2022/03/30 03:37:59;;;;;;;8.07;3.85;;;;;;;;;;5031373;28;20049;-69
2022/03/30 03:40:25;;;;;;;8.43;4.07;;;;;;;;;;5052444;28;20096;-69
2022/03/30 03:42:51;;;;;;;9.43;4.60;;;;;;;;;;5063945;28;20048;-69
2022/03/30 03:45:18;;;;;;;8.30;4.28;;;;;;;;;;5062250;28;20044;-69
2022/03/30 03:47:44;;;;;;;8.40;4.00;;;;;;;;;;5064798;28;20601;-69
2022/03/30 03:50:11;;;;;;;8.57;4.00;;;;;;;;;;5062010;28;20147;-69
2022/03/30 03:52:37;;;;;;;8.70;3.67;;;;;;;;;;5063261;28;20036;-70
2022/03/30 03:55:03;;;;;;;11.50;3.50;;;;;;;;;;5061228;28;20124;-69
2022/03/30 03:57:32;;;;;;;8.55;3.40;;;;;;;;;;5062798;28;20055;-69
2022/03/30 03:59:58;;;;;;;7.30;3.33;;;;;;;;;;5062184;28;20083;-69
2022/03/30 04:02:24;;;;;;;10.38;3.88;;;;;;;;;;5063757;28;20094;-69
2022/03/30 04:04:50;;;;;;;7.63;3.25;;;;;;;;;;5061905;28;20089;-69
2022/03/30 04:07:16;;;;;;;7.63;3.33;;;;;;;;;;5063640;28;20036;-69
2022/03/30 04:09:42;;;;;;;5.60;2.40;;;;;;;;;;5061588;28;20613;-69
2022/03/30 04:12:08;;;;;;;6.70;2.80;;;;;;;;;;5064463;28;20033;-69
2022/03/30 04:14:34;;;;;;;6.55;2.80;;;;;;;;;;5060683;28;20617;-70
2022/03/30 04:17:00;;;;;;;5.95;2.72;;;;;;;;;;5026611;28;20133;-69
2022/03/30 04:19:26;;;;;;;6.63;2.45;;;;;;;;;;5045476;28;20045;-69
2022/03/30 04:21:53;;;;;;;7.90;3.13;;;;;;;;;;5063194;28;20067;-69
2022/03/30 04:24:19;;;;;;;6.32;2.50;;;;;;;;;;5061671;28;20036;-69
2022/03/30 04:26:45;;;;;;;6.47;2.55;;;;;;;;;;5045981;28;20208;-70
2022/03/30 04:29:11;;;;;;;5.78;2.33;;;;;;;;;;5045772;28;20070;-70
2022/03/30 04:31:37;;;;;;;5.82;2.40;;;;;;;;;;5062089;28;20037;-69
2022/03/30 04:34:03;;;;;;;5.50;2.00;;;;;;;;;;5062264;28;20079;-69
2022/03/30 04:36:28;;;;;;;5.72;2.30;;;;;;;;;;5062618;28;20045;-69
2022/03/30 04:38:54;;;;;;;5.70;2.25;;;;;;;;;;5063831;28;20032;-69
2022/03/30 04:41:22;;;;;;;5.55;2.28;;;;;;;;;;5045062;28;20632;-69
2022/03/30 04:43:48;;;;;;;5.38;2.38;;;;;;;;;;5062229;28;20041;-69
2022/03/30 04:46:14;;;;;;;6.85;2.25;;;;;;;;;;5043275;28;20040;-69
2022/03/30 04:48:40;;;;;;;5.38;2.38;;;;;;;;;;5027395;28;20041;-69
2022/03/30 04:51:06;;;;;;;4.63;1.83;;;;;;;;;;5043356;28;20041;-69
2022/03/30 04:53:33;;;;;;;4.55;1.80;;;;;;;;;;5025739;28;20049;-69
2022/03/30 04:55:59;;;;;;;4.20;1.60;;;;;;;;;;5036170;28;20052;-69
2022/03/30 04:58:25;;;;;;;4.35;1.60;;;;;;;;;;5043063;28;20132;-69
2022/03/30 05:00:51;;;;;;;4.88;1.90;;;;;;;;;;5050961;28;20132;-69
2022/03/30 05:03:17;;;;;;;4.93;2.08;;;;;;;;;;5042243;28;20051;-69
2022/03/30 05:05:43;;;;;;;4.13;1.55;;;;;;;;;;5052807;28;20071;-69
2022/03/30 05:08:10;;;;;;;5.18;2.00;;;;;;;;;;5062027;28;20056;-69
2022/03/30 05:10:36;;;;;;;6.65;1.70;;;;;;;;;;5059158;28;20062;-70
2022/03/30 05:13:04;;;;;;;5.07;1.33;;;;;;;;;;5062890;28;20482;-69
2022/03/30 05:15:30;;;;;;;4.80;1.80;;;;;;;;;;5061519;28;20055;-69
2022/03/30 05:17:56;;;;;;;5.22;1.75;;;;;;;;;;5062532;28;20040;-69
2022/03/30 05:20:24;;;;;;;5.45;1.80;;;;;;;;;;5031305;28;20044;-69
2022/03/30 05:22:51;;;;;;;4.38;1.45;;;;;;;;;;5031601;28;20618;-69
2022/03/30 05:25:19;;;;;;;3.78;1.58;;;;;;;;;;5049264;28;20562;-69
2022/03/30 05:27:45;;;;;;;3.00;1.35;;;;;;;;;;5045610;28;20068;-70
2022/03/30 05:30:12;;;;;;;3.78;1.40;;;;;;;;;;5060405;28;20040;-69
2022/03/30 05:32:38;;;;;;;3.63;1.30;;;;;;;;;;5053957;28;20072;-70
2022/03/30 05:35:04;;;;;;;4.82;1.50;;;;;;;;;;5054550;28;20415;-70
2022/03/30 05:37:31;;;;;;;3.97;1.63;;;;;;;;;;5041300;28;20637;-69
2022/03/30 05:39:57;;;;;;;4.35;1.60;;;;;;;;;;5042838;28;20052;-69
2022/03/30 05:42:23;;;;;;;4.15;1.40;;;;;;;;;;5042547;28;20041;-70
2022/03/30 05:44:53;;;;;;;3.95;1.50;;;;;;;;;;5041142;28;20132;-69
2022/03/30 05:47:19;;;;;;;4.28;1.50;;;;;;;;;;5032017;28;20044;-70
2022/03/30 05:49:45;;;;;;;5.10;1.40;;;;;;;;;;5028894;28;20998;-69
2022/03/30 05:52:11;;;;;;;4.65;1.27;;;;;;;;;;5043125;28;20124;-69
2022/03/30 05:54:37;;;;;;;3.13;1.27;;;;;;;;;;5046208;28;21227;-69
2022/03/30 05:57:05;;;;;;;4.65;1.38;;;;;;;;;;5018456;28;20148;-69
2022/03/30 05:59:32;;;;;;;5.25;1.20;;;;;;;;;;5041322;28;20174;-70
2022/03/30 06:01:59;;;;;;;5.07;1.30;;;;;;;;;;5025405;28;20432;-70
2022/03/30 06:04:25;;;;;;;4.50;1.50;;;;;;;;;;5042130;28;20033;-70
2022/03/30 06:06:51;;;;;;;6.03;1.23;;;;;;;;;;5041808;28;20068;-70
2022/03/30 06:09:17;;;;;;;3.83;1.20;;;;;;;;;;5041169;28;20048;-70
2022/03/30 06:11:44;;;;;;;5.30;1.17;;;;;;;;;;5060883;28;20040;-69
2022/03/30 06:14:10;;;;;;;3.60;1.13;;;;;;;;;;5061836;28;20122;-70
2022/03/30 06:16:36;;;;;;;6.10;1.38;;;;;;;;;;5060345;28;20041;-70
2022/03/30 06:19:02;;;;;;;4.78;1.17;;;;;;;;;;5064697;28;20040;-70
2022/03/30 06:21:31;;;;;;;4.13;1.25;;;;;;;;;;5063647;28;20113;-70
2022/03/30 06:24:01;;;;;;;5.55;1.30;;;;;;;;;;5048916;28;20044;-70
2022/03/30 06:26:27;;;;;;;6.13;1.23;;;;;;;;;;5045374;28;20111;-70
2022/03/30 06:28:53;;;;;;;3.55;1.10;;;;;;;;;;5064943;28;20045;-70
2022/03/30 06:31:19;;;;;;;3.50;1.23;;;;;;;;;;5065454;28;20033;-70
2022/03/30 06:33:45;;;;;;;3.17;1.17;;;;;;;;;;5048726;28;20053;-70
2022/03/30 06:36:12;;;;;;;3.03;1.05;;;;;;;;;;5063765;28;20052;-70
2022/03/30 06:38:38;;;;;;;4.32;1.13;;;;;;;;;;5048795;28;20048;-70
2022/03/30 06:41:05;;;;;;;4.82;1.20;;;;;;;;;;5063062;28;20098;-70
2022/03/30 06:43:31;;;;;;;3.90;1.20;;;;;;;;;;5064787;28;20051;-70
2022/03/30 06:45:57;;;;;;;3.97;1.02;;;;;;;;;;5063654;28;20468;-69
2022/03/30 06:48:23;;;;;;;2.90;1.00;;;;;;;;;;5064884;28;20033;-70
2022/03/30 06:50:49;;;;;;;3.35;1.00;;;;;;;;;;5047307;28;20055;-70
2022/03/30 06:53:15;;;;;;;2.72;0.98;;;;;;;;;;5065138;28;20059;-70
2022/03/30 06:55:41;;;;;;;4.05;1.00;;;;;;;;;;5046505;28;20051;-70
2022/03/30 06:58:07;;;;;;;2.40;0.85;;;;;;;;;;5064176;28;20037;-70
2022/03/30 07:00:33;;;;;;;4.07;0.90;;;;;;;;;;5052183;28;20662;-70
2022/03/30 07:02:59;;;;;;;3.72;1.00;;;;;;;;;;5045289;28;20052;-70
2022/03/30 07:05:25;;;;;;;5.22;1.50;;;;;;;;;;5037561;28;20142;-70
2022/03/30 07:10:36;;;;;;;5.15;1.00;;;;;;;;;;5062912;28;20052;-70
2022/03/30 07:13:03;;;;;;;2.75;1.02;;;;;;;;;;5047931;28;20047;-69
2022/03/30 07:15:30;;;;;;;3.58;1.00;;;;;;;;;;5047066;28;20050;-70
2022/03/30 07:17:58;;;;;;;2.67;0.93;;;;;;;;;;5064415;28;20560;-70
2022/03/30 07:20:26;;;;;;;3.42;0.88;;;;;;;;;;5060743;28;20076;-69
2022/03/30 07:22:52;;;;;;;3.55;1.00;;;;;;;;;;5063716;28;20040;-68
2022/03/30 07:25:19;;;;;;;4.30;1.02;;;;;;;;;;5059643;28;20775;-68
2022/03/30 07:27:47;;;;;;;3.38;0.82;;;;;;;;;;5062468;28;20079;-69
2022/03/30 07:30:14;;;;;;;4.63;0.90;;;;;;;;;;5059465;28;20068;-68
2022/03/30 07:32:41;;;;;;;3.55;1.02;;;;;;;;;;5061934;28;20054;-68
2022/03/30 07:35:08;;;;;;;4.07;0.90;;;;;;;;;;5060054;28;20751;-68
2022/03/30 07:37:34;;;;;;;2.75;0.90;;;;;;;;;;5061924;28;20097;-68
2022/03/30 07:40:02;;;;;;;2.70;0.90;;;;;;;;;;5059631;28;20028;-69
2022/03/30 07:42:28;;;;;;;1.75;0.70;;;;;;;;;;5044265;28;20044;-69
2022/03/30 07:44:54;;;;;;;2.92;0.80;;;;;;;;;;5061746;28;20203;-69
2022/03/30 07:47:21;;;;;;;2.80;0.90;;;;;;;;;;5063768;28;20045;-69
2022/03/30 07:49:47;;;;;;;4.65;0.98;;;;;;;;;;5062375;28;20047;-69
2022/03/30 07:52:13;;;;;;;2.58;0.80;;;;;;;;;;5064827;28;20049;-69
2022/03/30 07:54:39;;;;;;;3.17;0.90;;;;;;;;;;5063417;28;20032;-68
2022/03/30 07:57:05;;;;;;;3.35;1.02;;;;;;;;;;5063713;28;20063;-69
2022/03/30 07:59:31;;;;;;;3.00;1.00;;;;;;;;;;5062390;28;20048;-69
2022/03/30 08:01:58;;;;;;;3.08;1.00;;;;;;;;;;5063490;28;20530;-69
2022/03/30 08:04:24;;;;;;;3.22;0.85;;;;;;;;;;5062197;28;20187;-69
2022/03/30 08:06:51;;;;;;;2.55;1.00;;;;;;;;;;5063122;28;20402;-68
2022/03/30 08:09:17;;;;;;;2.67;0.80;;;;;;;;;;5061996;28;20517;-68
2022/03/30 08:11:43;;;;;;;1.83;0.80;;;;;;;;;;5044098;28;20098;-68
2022/03/30 08:14:09;;;;;;;3.53;0.80;;;;;;;;;;5043692;28;20093;-68
2022/03/30 08:16:35;;;;;;;4.00;0.73;;;;;;;;;;5062814;28;20045;-68
2022/03/30 08:19:01;;;;;;;3.30;0.90;;;;;;;;;;5063327;28;20048;-68
2022/03/30 08:24:11;;;;;;;;;;;;;;;;;;5062959;28;20497;-68
2022/03/30 08:26:39;;;;;;;2.50;0.80;;;;;;;;;;5044108;28;20070;-68
2022/03/30 08:29:06;;;;;;;4.47;0.93;;;;;;;;;;5044667;28;20037;-68
2022/03/30 08:31:33;;;;;;;2.17;0.63;;;;;;;;;;5061935;28;20130;-68
2022/03/30 08:33:59;;;;;;;3.58;0.73;;;;;;;;;;5062594;28;20060;-68
2022/03/30 08:36:29;;;;;;;4.20;1.00;;;;;;;;;;5043401;28;20049;-69
2022/03/30 08:38:55;;;;;;;3.85;0.95;;;;;;;;;;5042770;28;20049;-69
2022/03/30 08:41:21;;;;;;;3.15;0.80;;;;;;;;;;5058805;28;20535;-69
2022/03/30 08:43:47;;;;;;;2.67;0.73;;;;;;;;;;5062978;28;20048;-69
2022/03/30 08:46:14;;;;;;;3.30;1.00;;;;;;;;;;5046598;28;20056;-69
2022/03/30 08:48:40;;;;;;;2.85;0.90;;;;;;;;;;5042418;28;20048;-69
2022/03/30 08:51:07;;;;;;;2.97;1.08;;;;;;;;;;5042330;28;20044;-69
2022/03/30 08:53:33;;;;;;;1.92;0.70;;;;;;;;;;5043068;28;20037;-69
2022/03/30 08:55:59;;;;;;;2.67;0.80;;;;;;;;;;5057519;28;20086;-69
2022/03/30 08:58:25;;;;;;;3.08;0.90;;;;;;;;;;5050956;28;20502;-69
2022/03/30 09:00:52;;;;;;;2.65;0.63;;;;;;;;;;5053378;28;20081;-69
2022/03/30 09:03:19;;;;;;;3.10;0.70;;;;;;;;;;5047469;28;20097;-69
2022/03/30 09:05:45;;;;;;;4.20;0.88;;;;;;;;;;5047431;28;20125;-69
2022/03/30 09:08:13;;;;;;;2.80;0.80;;;;;;;;;;5045934;28;20498;-69
2022/03/30 09:10:39;;;;;;;2.88;0.70;;;;;;;;;;5054112;28;20044;-69
2022/03/30 09:13:07;;;;;;;2.70;0.68;;;;;;;;;;5063836;28;20104;-69
2022/03/30 09:15:33;;;;;;;3.40;0.80;;;;;;;;;;5061089;28;20052;-69
2022/03/30 09:18:00;;;;;;;4.35;1.02;;;;;;;;;;5062247;28;20058;-69
2022/03/30 09:20:26;;;;;;;3.38;0.88;;;;;;;;;;5060324;28;20660;-68
2022/03/30 09:22:55;;;;;;;3.20;0.90;;;;;;;;;;5061837;28;20048;-70
2022/03/30 09:25:23;;;;;;;3.00;0.70;;;;;;;;;;5058418;28;20062;-72
2022/03/30 09:27:52;;;;;;;6.18;0.98;;;;;;;;;;5061874;28;20090;-72
2022/03/30 09:30:19;;;;;;;9.73;1.30;;;;;;;;;;5059844;28;20028;-72
2022/03/30 09:32:46;;;;;;;5.57;1.20;;;;;;;;;;5061794;28;20391;-72
2022/03/30 09:35:38;;;;;;;4.72;1.02;;;;;;;;;;5059950;28;20399;-73
2022/03/30 09:38:08;;;;;;;5.20;1.38;;;;;;;;;;5043242;28;20663;-73
2022/03/30 09:40:35;;;;;;;5.47;1.10;;;;;;;;;;5060597;28;20119;-73
2022/03/30 09:43:17;;;;;;;4.35;1.10;;;;;;;;;;5061643;28;20186;-73
2022/03/30 09:45:43;;;;;;;7.15;1.20;;;;;;;;;;5060398;28;20036;-72
2022/03/30 09:48:12;;;;;;;5.20;1.10;;;;;;;;;;5045454;28;20041;-73
2022/03/30 09:50:42;;;;;;;5.60;1.17;;;;;;;;;;5060554;28;20099;-72
2022/03/30 09:53:12;;;;;;;4.30;1.05;;;;;;;;;;5066370;28;20051;-72
2022/03/30 09:55:50;;;;;;;4.53;1.23;;;;;;;;;;5066273;28;20087;-72
2022/03/30 09:58:19;;;;;;;4.28;0.88;;;;;;;;;;5068516;28;20123;-72
2022/03/30 10:00:48;;;;;;;5.00;1.30;;;;;;;;;;5067456;28;20044;-73
2022/03/30 10:03:15;;;;;;;5.85;1.17;;;;;;;;;;5068520;28;20625;-72
2022/03/30 10:05:41;;;;;;;7.15;1.50;;;;;;;;;;5066842;28;20050;-72
2022/03/30 10:08:08;;;;;;;6.50;1.25;;;;;;;;;;5051545;28;20047;-72
2022/03/30 10:10:34;;;;;;;5.22;1.30;;;;;;;;;;5039716;28;20689;-72
2022/03/30 10:13:00;;;;;;;11.32;1.48;;;;;;;;;;5048180;28;20077;-72
2022/03/30 10:15:26;;;;;;;5.97;1.15;;;;;;;;;;5057953;28;20040;-72
2022/03/30 10:17:53;;;;;;;5.93;1.30;;;;;;;;;;5068915;28;20049;-72
2022/03/30 10:20:21;;;;;;;7.45;1.23;;;;;;;;;;5050391;28;20119;-73
2022/03/30 10:22:53;;;;;;;5.50;1.30;;;;;;;;;;5068160;28;20123;-72
2022/03/30 10:25:38;;;;;;;6.53;1.10;;;;;;;;;;5065051;28;20761;-72
2022/03/30 10:28:24;;;;;;;6.40;1.33;;;;;;;;;;5051436;28;20492;-72
2022/03/30 10:30:54;;;;;;;4.45;1.00;;;;;;;;;;5066265;28;20044;-72
2022/03/30 10:33:29;;;;;;;4.28;1.02;;;;;;;;;;5051363;28;20036;-72
2022/03/30 10:35:56;;;;;;;5.65;1.15;;;;;;;;;;5066585;28;20052;-73
2022/03/30 10:38:23;;;;;;;4.75;1.10;;;;;;;;;;5067905;28;20044;-73
2022/03/30 10:41:05;;;;;;;4.00;1.20;;;;;;;;;;5065549;28;20051;-73
2022/03/30 10:43:31;;;;;;;6.10;1.20;;;;;;;;;;5068153;28;20117;-73
2022/03/30 10:45:59;;;;;;;5.38;1.10;;;;;;;;;;5050661;28;20044;-73
2022/03/30 10:48:31;;;;;;;4.25;0.93;;;;;;;;;;5067912;28;20103;-73
2022/03/30 10:51:13;;;;;;;6.25;1.10;;;;;;;;;;5066196;28;20045;-73
2022/03/30 10:53:52;;;;;;;5.38;0.98;;;;;;;;;;5068192;28;20492;-72
2022/03/30 10:56:18;;;;;;;3.00;1.00;;;;;;;;;;5067023;28;20639;-72
2022/03/30 10:58:53;;;;;;;4.22;0.90;;;;;;;;;;5067693;28;20045;-73
2022/03/30 11:01:28;;;;;;;3.17;0.98;;;;;;;;;;5066725;28;20093;-72
2022/03/30 11:04:06;;;;;;;4.57;1.00;;;;;;;;;;5066582;28;20119;-72
2022/03/30 11:06:36;;;;;;;3.92;1.00;;;;;;;;;;5063370;28;20090;-72
2022/03/30 11:09:03;;;;;;;5.20;1.25;;;;;;;;;;5065020;28;20044;-72
2022/03/30 11:11:34;;;;;;;4.55;0.93;;;;;;;;;;5063224;28;20528;-73
2022/03/30 11:14:19;;;;;;;3.88;1.00;;;;;;;;;;5065221;28;20086;-72
2022/03/30 11:16:53;;;;;;;5.63;1.10;;;;;;;;;;5064489;28;20041;-72
2022/03/30 11:19:19;;;;;;;3.08;0.88;;;;;;;;;;5046296;28;20052;-71
2022/03/30 11:21:53;;;;;;;2.92;0.80;;;;;;;;;;5063652;28;20056;-72
2022/03/30 11:24:19;;;;;;;3.63;1.00;;;;;;;;;;5063324;28;20036;-72
2022/03/30 11:26:48;;;;;;;4.68;1.00;;;;;;;;;;5063853;28;20633;-72
2022/03/30 11:29:33;;;;;;;4.82;1.02;;;;;;;;;;5063235;28;20044;-72
2022/03/30 11:31:59;;;;;;;2.40;1.00;;;;;;;;;;5044368;28;20033;-72
2022/03/30 11:34:34;;;;;;;3.38;1.00;;;;;;;;;;5028128;28;20053;-73
2022/03/30 11:37:01;;;;;;;2.63;0.80;;;;;;;;;;5063711;28;20047;-72
2022/03/30 11:39:34;;;;;;;2.70;0.73;;;;;;;;;;5044494;28;20066;-72
2022/03/30 11:42:01;;;;;;;3.43;0.80;;;;;;;;;;5042908;28;20116;-72
2022/03/30 11:47:13;;;;;;;4.82;0.90;;;;;;;;;;5064316;28;20505;-73
2022/03/30 11:49:49;;;;;;;3.00;0.90;;;;;;;;;;5062684;28;20079;-72
2022/03/30 11:52:18;;;;;;;1.88;0.68;;;;;;;;;;5063838;28;20685;-73
2022/03/30 11:54:47;;;;;;;2.95;0.90;;;;;;;;;;5062089;28;20048;-72
2022/03/30 11:57:15;;;;;;;4.68;0.95;;;;;;;;;;5047224;28;20385;-72
2022/03/30 11:59:41;;;;;;;3.17;0.80;;;;;;;;;;5046439;28;20667;-72
2022/03/30 12:02:07;;;;;;;4.00;0.95;;;;;;;;;;5064201;28;20131;-72
2022/03/30 12:04:33;;;;;;;5.57;0.73;;;;;;;;;;5062840;28;20116;-73
2022/03/30 12:06:59;;;;;;;4.70;0.90;;;;;;;;;;5063465;28;20072;-72
2022/03/30 12:09:25;;;;;;;2.22;0.68;;;;;;;;;;5062517;28;20040;-72
2022/03/30 12:11:52;;;;;;;4.47;0.90;;;;;;;;;;5062805;28;20075;-72
2022/03/30 12:14:27;;;;;;;2.45;0.70;;;;;;;;;;5045793;28;20116;-72
2022/03/30 12:16:54;;;;;;;3.03;0.75;;;;;;;;;;5063222;28;20044;-72
2022/03/30 12:19:20;;;;;;;2.63;0.75;;;;;;;;;;5033548;28;20048;-72
2022/03/30 12:21:46;;;;;;;3.10;0.90;;;;;;;;;;5062963;28;20045;-72
2022/03/30 12:24:16;;;;;;;3.47;0.75;;;;;;;;;;5062744;28;20105;-72
2022/03/30 12:26:42;;;;;;;3.15;0.80;;;;;;;;;;5062169;28;20098;-72
2022/03/30 12:29:09;;;;;;;2.63;0.77;;;;;;;;;;5063033;28;20551;-72
2022/03/30 12:31:49;;;;;;;5.43;0.70;;;;;;;;;;5061677;28;20116;-72
2022/03/30 12:34:17;;;;;;;1.70;0.70;;;;;;;;;;5061837;28;20091;-72
2022/03/30 12:36:46;;;;;;;3.88;0.70;;;;;;;;;;5042729;28;20137;-72
2022/03/30 12:39:39;;;;;;;2.75;0.90;;;;;;;;;;5042673;28;20053;-72
2022/03/30 12:42:34;;;;;;;3.72;1.00;;;;;;;;;;5024398;28;20056;-72
2022/03/30 12:45:02;;;;;;;3.58;0.80;;;;;;;;;;5024243;28;20052;-72
2022/03/30 12:47:32;;;;;;;3.17;0.80;;;;;;;;;;5062929;28;20701;-72
2022/03/30 12:50:00;;;;;;;3.05;0.77;;;;;;;;;;5061540;28;20036;-72
2022/03/30 12:52:32;;;;;;;2.28;0.60;;;;;;;;;;5062932;28;20535;-72
2022/03/30 12:55:17;;;;;;;3.30;0.90;;;;;;;;;;5060829;28;20059;-72
2022/03/30 12:57:54;;;;;;;2.72;0.70;;;;;;;;;;5062583;28;20040;-72
2022/03/30 13:00:34;;;;;;;2.83;0.70;;;;;;;;;;5061840;28;20146;-72
2022/03/30 13:03:03;;;;;;;4.00;0.68;;;;;;;;;;5062568;28;20052;-72
2022/03/30 13:05:30;;;;;;;4.05;0.80;;;;;;;;;;5061064;28;20080;-72
2022/03/30 13:07:56;;;;;;;4.22;0.95;;;;;;;;;;5062815;28;20043;-72
2022/03/30 13:10:23;;;;;;;3.28;0.70;;;;;;;;;;5051392;28;20041;-72
2022/03/30 13:12:54;;;;;;;3.90;0.70;;;;;;;;;;5042202;28;20241;-72
2022/03/30 13:15:22;;;;;;;2.67;0.70;;;;;;;;;;5050757;28;20053;-72
2022/03/30 13:17:55;;;;;;;2.40;0.70;;;;;;;;;;5062469;28;20043;-72
2022/03/30 13:20:21;;;;;;;1.90;0.70;;;;;;;;;;5060491;28;20054;-72
2022/03/30 13:23:00;;;;;;;4.13;0.80;;;;;;;;;;5049444;28;20045;-72
2022/03/30 13:25:34;;;;;;;2.22;0.73;;;;;;;;;;5050184;28;20075;-72
2022/03/30 13:28:02;;;;;;;3.97;0.82;;;;;;;;;;5054785;28;20534;-72
2022/03/30 13:30:28;;;;;;;3.22;0.73;;;;;;;;;;5051457;28;20678;-73
2022/03/30 13:32:54;;;;;;;2.10;0.60;;;;;;;;;;5045709;28;20357;-72
2022/03/30 13:35:20;;;;;;;2.00;0.77;;;;;;;;;;5060401;28;20061;-72
2022/03/30 13:37:46;;;;;;;2.40;0.60;;;;;;;;;;5062051;28;20418;-72
2022/03/30 13:40:12;;;;;;;2.53;0.77;;;;;;;;;;5060172;28;20036;-72
2022/03/30 13:42:38;;;;;;;1.77;0.55;;;;;;;;;;5061830;28;20074;-72
2022/03/30 13:45:04;;;;;;;1.95;0.65;;;;;;;;;;5044507;28;20136;-72
2022/03/30 13:47:30;;;;;;;2.08;0.60;;;;;;;;;;5045256;28;20045;-73
2022/03/30 13:49:56;;;;;;;1.65;0.60;;;;;;;;;;5044370;28;20498;-72
2022/03/30 13:52:24;;;;;;;3.05;0.80;;;;;;;;;;5044992;28;20044;-72
2022/03/30 13:54:51;;;;;;;1.67;0.60;;;;;;;;;;5059964;28;20074;-72
2022/03/30 13:57:17;;;;;;;2.80;0.68;;;;;;;;;;5061800;28;20047;-72
2022/03/30 13:59:44;;;;;;;3.05;0.70;;;;;;;;;;5056882;28;20506;-72
2022/03/30 14:02:10;;;;;;;2.15;0.68;;;;;;;;;;5042121;28;20048;-72
2022/03/30 14:04:36;;;;;;;1.98;0.60;;;;;;;;;;5044657;28;20047;-72
2022/03/30 14:07:04;;;;;;;4.32;0.90;;;;;;;;;;5045082;28;20068;-72
2022/03/30 14:09:31;;;;;;;3.65;0.90;;;;;;;;;;5060365;28;20505;-72
2022/03/30 14:12:01;;;;;;;2.03;0.60;;;;;;;;;;5060586;28;20125;-72
2022/03/30 14:14:31;;;;;;;1.60;0.60;;;;;;;;;;5044223;28;20543;-72
2022/03/30 14:16:59;;;;;;;1.30;0.50;;;;;;;;;;5061729;28;20086;-72
2022/03/30 14:19:25;;;;;;;2.20;0.68;;;;;;;;;;5043379;28;20067;-72
2022/03/30 14:21:51;;;;;;;2.85;0.80;;;;;;;;;;5061333;28;20714;-72
2022/03/30 14:24:18;;;;;;;1.38;0.50;;;;;;;;;;5060289;28;20148;-72
2022/03/30 14:26:44;;;;;;;2.38;0.70;;;;;;;;;;5057233;28;20045;-72
2022/03/30 14:29:10;;;;;;;3.55;0.80;;;;;;;;;;5041395;28;20037;-72
2022/03/30 14:31:36;;;;;;;2.38;0.63;;;;;;;;;;5059863;28;20048;-72
2022/03/30 14:34:02;;;;;;;2.05;0.60;;;;;;;;;;5061253;28;20806;-72
2022/03/30 14:36:28;;;;;;;2.20;0.60;;;;;;;;;;5060473;28;20041;-72
2022/03/30 14:38:54;;;;;;;2.72;0.70;;;;;;;;;;5062855;28;20155;-71
2022/03/30 14:41:20;;;;;;;2.28;0.80;;;;;;;;;;5063251;28;20044;-71
2022/03/30 14:43:46;;;;;;;3.08;0.60;;;;;;;;;;5064644;28;20044;-71
2022/03/30 14:46:12;;;;;;;2.03;0.68;;;;;;;;;;5046542;28;20029;-71
2022/03/30 14:48:38;;;;;;;2.90;0.70;;;;;;;;;;5047048;28;20036;-71
2022/03/30 14:51:05;;;;;;;2.53;0.60;;;;;;;;;;5046200;28;20033;-71
2022/03/30 14:53:31;;;;;;;5.68;0.93;;;;;;;;;;5028773;28;20110;-71